sensor_id;sensor_type;location;lat;lon;timestamp;P1;durP1;ratioP1;P2;durP2;ratioP2
66800;SDS011;53703;50.326;19.122;2023-02-23T00:03:17;41.10;;;20.40;;
66800;SDS011;53703;50.326;19.122;2023-02-23T00:06:12;37.70;;;17.80;;
66800;SDS011;53703;50.326;19.122;2023-02-23T00:09:06;38.00;;;18.50;;
66800;SDS011;53703;50.326;19.122;2023-02-23T00:12:12;37.60;;;18.90;;
66800;SDS011;53703;50.326;19.122;2023-02-23T00:15:10;36.00;;;18.00;;
66800;SDS011;53703;50.326;19.122;2023-02-23T00:18:05;36.50;;;18.30;;
66800;SDS011;53703;50.326;19.122;2023-02-23T00:20:59;36.30;;;17.40;;
66800;SDS011;53703;50.326;19.122;2023-02-23T00:23:56;37.50;;;18.90;;
66800;SDS011;53703;50.326;19.122;2023-02-23T00:26:51;36.00;;;18.30;;
66800;SDS011;53703;50.326;19.122;2023-02-23T00:29:45;35.30;;;17.60;;
66800;SDS011;53703;50.326;19.122;2023-02-23T00:32:41;34.50;;;16.70;;
66800;SDS011;53703;50.326;19.122;2023-02-23T00:35:36;34.20;;;16.90;;
66800;SDS011;53703;50.326;19.122;2023-02-23T00:38:30;34.20;;;17.10;;
66800;SDS011;53703;50.326;19.122;2023-02-23T00:41:26;32.30;;;15.80;;
66800;SDS011;53703;50.326;19.122;2023-02-23T00:44:21;32.60;;;15.90;;
66800;SDS011;53703;50.326;19.122;2023-02-23T00:47:16;31.00;;;15.10;;
66800;SDS011;53703;50.326;19.122;2023-02-23T00:50:13;30.50;;;15.10;;
66800;SDS011;53703;50.326;19.122;2023-02-23T00:53:09;30.30;;;14.40;;
66800;SDS011;53703;50.326;19.122;2023-02-23T00:56:06;29.20;;;14.90;;
66800;SDS011;53703;50.326;19.122;2023-02-23T00:59:02;28.60;;;15.10;;
66800;SDS011;53703;50.326;19.122;2023-02-23T01:01:56;28.70;;;13.80;;
66800;SDS011;53703;50.326;19.122;2023-02-23T01:04:50;31.80;;;14.60;;
66800;SDS011;53703;50.326;19.122;2023-02-23T01:07:44;26.60;;;13.70;;
66800;SDS011;53703;50.326;19.122;2023-02-23T01:10:41;30.10;;;14.70;;
66800;SDS011;53703;50.326;19.122;2023-02-23T01:13:43;29.70;;;13.60;;
66800;SDS011;53703;50.326;19.122;2023-02-23T01:16:38;27.00;;;13.30;;
66800;SDS011;53703;50.326;19.122;2023-02-23T01:19:33;28.60;;;13.80;;
66800;SDS011;53703;50.326;19.122;2023-02-23T01:22:27;25.00;;;12.60;;
66800;SDS011;53703;50.326;19.122;2023-02-23T01:25:22;25.20;;;13.00;;
66800;SDS011;53703;50.326;19.122;2023-02-23T01:28:18;25.00;;;12.30;;
66800;SDS011;53703;50.326;19.122;2023-02-23T01:31:12;25.00;;;11.90;;
66800;SDS011;53703;50.326;19.122;2023-02-23T01:34:08;23.30;;;12.40;;
66800;SDS011;53703;50.326;19.122;2023-02-23T01:37:03;26.80;;;12.00;;
66800;SDS011;53703;50.326;19.122;2023-02-23T01:39:58;21.80;;;11.40;;
66800;SDS011;53703;50.326;19.122;2023-02-23T01:42:57;23.10;;;11.70;;
66800;SDS011;53703;50.326;19.122;2023-02-23T01:46:05;23.20;;;11.00;;
66800;SDS011;53703;50.326;19.122;2023-02-23T01:48:59;24.30;;;11.60;;
66800;SDS011;53703;50.326;19.122;2023-02-23T01:51:58;23.70;;;11.60;;
66800;SDS011;53703;50.326;19.122;2023-02-23T01:55:11;20.00;;;9.60;;
66800;SDS011;53703;50.326;19.122;2023-02-23T01:58:13;22.10;;;11.70;;
66800;SDS011;53703;50.326;19.122;2023-02-23T02:01:12;20.40;;;10.00;;
66800;SDS011;53703;50.326;19.122;2023-02-23T02:04:07;21.00;;;10.70;;
66800;SDS011;53703;50.326;19.122;2023-02-23T02:07:06;19.50;;;10.40;;
66800;SDS011;53703;50.326;19.122;2023-02-23T02:10:01;21.20;;;10.40;;
66800;SDS011;53703;50.326;19.122;2023-02-23T02:13:18;20.30;;;9.80;;
66800;SDS011;53703;50.326;19.122;2023-02-23T02:16:34;19.30;;;9.90;;
66800;SDS011;53703;50.326;19.122;2023-02-23T02:20:24;20.40;;;9.90;;
66800;SDS011;53703;50.326;19.122;2023-02-23T02:23:40;19.40;;;10.10;;
66800;SDS011;53703;50.326;19.122;2023-02-23T02:26:57;19.00;;;10.30;;
66800;SDS011;53703;50.326;19.122;2023-02-23T02:30:14;17.80;;;8.80;;
66800;SDS011;53703;50.326;19.122;2023-02-23T02:34:03;17.40;;;8.50;;
66800;SDS011;53703;50.326;19.122;2023-02-23T02:37:26;18.90;;;9.30;;
66800;SDS011;53703;50.326;19.122;2023-02-23T02:40:33;16.70;;;8.70;;
66800;SDS011;53703;50.326;19.122;2023-02-23T02:43:46;18.50;;;9.00;;
66800;SDS011;53703;50.326;19.122;2023-02-23T02:46:48;18.20;;;9.00;;
66800;SDS011;53703;50.326;19.122;2023-02-23T02:49:51;15.40;;;8.20;;
66800;SDS011;53703;50.326;19.122;2023-02-23T02:52:56;19.20;;;8.80;;
66800;SDS011;53703;50.326;19.122;2023-02-23T02:55:54;15.80;;;8.10;;
66800;SDS011;53703;50.326;19.122;2023-02-23T02:58:55;15.40;;;8.20;;
66800;SDS011;53703;50.326;19.122;2023-02-23T03:01:50;15.30;;;7.70;;
66800;SDS011;53703;50.326;19.122;2023-02-23T03:05:06;15.60;;;8.20;;
66800;SDS011;53703;50.326;19.122;2023-02-23T03:08:24;15.20;;;7.70;;
66800;SDS011;53703;50.326;19.122;2023-02-23T03:11:48;16.70;;;7.50;;
66800;SDS011;53703;50.326;19.122;2023-02-23T03:15:27;15.40;;;7.80;;
66800;SDS011;53703;50.326;19.122;2023-02-23T03:19:03;15.70;;;7.70;;
66800;SDS011;53703;50.326;19.122;2023-02-23T03:22:23;15.90;;;7.30;;
66800;SDS011;53703;50.326;19.122;2023-02-23T03:25:47;15.20;;;7.30;;
66800;SDS011;53703;50.326;19.122;2023-02-23T03:29:06;15.40;;;7.80;;
66800;SDS011;53703;50.326;19.122;2023-02-23T03:32:25;13.00;;;7.00;;
66800;SDS011;53703;50.326;19.122;2023-02-23T03:35:44;13.90;;;7.00;;
66800;SDS011;53703;50.326;19.122;2023-02-23T03:39:20;14.70;;;7.20;;
66800;SDS011;53703;50.326;19.122;2023-02-23T03:42:39;13.80;;;6.50;;
66800;SDS011;53703;50.326;19.122;2023-02-23T03:45:53;13.50;;;6.70;;
66800;SDS011;53703;50.326;19.122;2023-02-23T03:49:09;14.00;;;6.70;;
66800;SDS011;53703;50.326;19.122;2023-02-23T03:52:26;13.30;;;6.90;;
66800;SDS011;53703;50.326;19.122;2023-02-23T03:55:45;12.20;;;6.20;;
66800;SDS011;53703;50.326;19.122;2023-02-23T03:59:00;14.00;;;6.80;;
66800;SDS011;53703;50.326;19.122;2023-02-23T04:02:15;12.40;;;6.60;;
66800;SDS011;53703;50.326;19.122;2023-02-23T04:05:29;12.20;;;6.30;;
66800;SDS011;53703;50.326;19.122;2023-02-23T04:08:43;13.60;;;6.80;;
66800;SDS011;53703;50.326;19.122;2023-02-23T04:11:59;14.00;;;6.40;;
66800;SDS011;53703;50.326;19.122;2023-02-23T04:15:19;12.50;;;6.30;;
66800;SDS011;53703;50.326;19.122;2023-02-23T04:18:19;11.70;;;6.40;;
66800;SDS011;53703;50.326;19.122;2023-02-23T04:21:16;12.70;;;6.10;;
66800;SDS011;53703;50.326;19.122;2023-02-23T04:24:11;11.20;;;6.20;;
66800;SDS011;53703;50.326;19.122;2023-02-23T04:27:05;11.20;;;6.00;;
66800;SDS011;53703;50.326;19.122;2023-02-23T04:30:01;12.10;;;6.40;;
66800;SDS011;53703;50.326;19.122;2023-02-23T04:32:57;10.80;;;6.10;;
66800;SDS011;53703;50.326;19.122;2023-02-23T04:35:52;12.10;;;6.00;;
66800;SDS011;53703;50.326;19.122;2023-02-23T04:38:46;16.10;;;6.30;;
66800;SDS011;53703;50.326;19.122;2023-02-23T04:41:40;12.60;;;6.50;;
66800;SDS011;53703;50.326;19.122;2023-02-23T04:44:35;13.00;;;6.40;;
66800;SDS011;53703;50.326;19.122;2023-02-23T04:47:29;10.70;;;5.50;;
66800;SDS011;53703;50.326;19.122;2023-02-23T04:50:23;13.60;;;6.10;;
66800;SDS011;53703;50.326;19.122;2023-02-23T04:53:17;15.60;;;6.30;;
66800;SDS011;53703;50.326;19.122;2023-02-23T04:56:11;13.10;;;6.20;;
66800;SDS011;53703;50.326;19.122;2023-02-23T04:59:05;11.40;;;6.10;;
66800;SDS011;53703;50.326;19.122;2023-02-23T05:01:59;12.30;;;6.10;;
66800;SDS011;53703;50.326;19.122;2023-02-23T05:04:53;12.90;;;5.50;;
66800;SDS011;53703;50.326;19.122;2023-02-23T05:07:35;11.40;;;6.00;;
66800;SDS011;53703;50.326;19.122;2023-02-23T05:10:30;14.40;;;6.60;;
66800;SDS011;53703;50.326;19.122;2023-02-23T05:13:23;11.80;;;6.30;;
66800;SDS011;53703;50.326;19.122;2023-02-23T05:16:17;11.90;;;6.00;;
66800;SDS011;53703;50.326;19.122;2023-02-23T05:19:11;12.40;;;5.90;;
66800;SDS011;53703;50.326;19.122;2023-02-23T05:22:05;12.60;;;6.10;;
66800;SDS011;53703;50.326;19.122;2023-02-23T05:25:02;14.60;;;6.40;;
66800;SDS011;53703;50.326;19.122;2023-02-23T05:27:58;11.50;;;6.20;;
66800;SDS011;53703;50.326;19.122;2023-02-23T05:30:52;14.70;;;6.90;;
66800;SDS011;53703;50.326;19.122;2023-02-23T05:33:46;13.30;;;6.50;;
66800;SDS011;53703;50.326;19.122;2023-02-23T05:36:41;14.20;;;6.50;;
66800;SDS011;53703;50.326;19.122;2023-02-23T05:39:35;10.10;;;5.80;;
66800;SDS011;53703;50.326;19.122;2023-02-23T05:42:29;12.00;;;6.30;;
66800;SDS011;53703;50.326;19.122;2023-02-23T05:45:23;12.30;;;6.40;;
66800;SDS011;53703;50.326;19.122;2023-02-23T05:48:18;12.30;;;6.20;;
66800;SDS011;53703;50.326;19.122;2023-02-23T05:51:13;11.40;;;5.70;;
66800;SDS011;53703;50.326;19.122;2023-02-23T05:54:09;12.60;;;6.00;;
66800;SDS011;53703;50.326;19.122;2023-02-23T05:57:04;12.40;;;6.40;;
66800;SDS011;53703;50.326;19.122;2023-02-23T05:59:58;12.00;;;6.70;;
66800;SDS011;53703;50.326;19.122;2023-02-23T06:02:52;14.90;;;7.40;;
66800;SDS011;53703;50.326;19.122;2023-02-23T06:05:51;13.50;;;7.00;;
66800;SDS011;53703;50.326;19.122;2023-02-23T06:08:46;14.00;;;6.60;;
66800;SDS011;53703;50.326;19.122;2023-02-23T06:11:40;17.60;;;6.60;;
66800;SDS011;53703;50.326;19.122;2023-02-23T06:14:34;14.50;;;6.70;;
66800;SDS011;53703;50.326;19.122;2023-02-23T06:17:28;14.20;;;6.70;;
66800;SDS011;53703;50.326;19.122;2023-02-23T06:20:22;12.90;;;7.20;;
66800;SDS011;53703;50.326;19.122;2023-02-23T06:23:16;13.70;;;7.00;;
66800;SDS011;53703;50.326;19.122;2023-02-23T06:26:10;11.80;;;6.70;;
66800;SDS011;53703;50.326;19.122;2023-02-23T06:29:05;11.70;;;6.60;;
66800;SDS011;53703;50.326;19.122;2023-02-23T06:31:59;13.60;;;6.70;;
66800;SDS011;53703;50.326;19.122;2023-02-23T06:34:53;13.40;;;7.60;;
66800;SDS011;53703;50.326;19.122;2023-02-23T06:37:47;12.40;;;7.10;;
66800;SDS011;53703;50.326;19.122;2023-02-23T06:40:40;12.70;;;7.20;;
66800;SDS011;53703;50.326;19.122;2023-02-23T06:43:35;16.60;;;8.50;;
66800;SDS011;53703;50.326;19.122;2023-02-23T06:46:29;16.00;;;7.80;;
66800;SDS011;53703;50.326;19.122;2023-02-23T06:49:23;14.50;;;7.70;;
66800;SDS011;53703;50.326;19.122;2023-02-23T06:52:17;13.70;;;7.40;;
66800;SDS011;53703;50.326;19.122;2023-02-23T06:55:11;13.80;;;7.30;;
66800;SDS011;53703;50.326;19.122;2023-02-23T06:58:06;13.00;;;7.20;;
66800;SDS011;53703;50.326;19.122;2023-02-23T07:01:00;12.60;;;7.00;;
66800;SDS011;53703;50.326;19.122;2023-02-23T07:03:54;14.70;;;7.40;;
66800;SDS011;53703;50.326;19.122;2023-02-23T07:06:48;15.40;;;7.80;;
66800;SDS011;53703;50.326;19.122;2023-02-23T07:09:42;15.90;;;7.80;;
66800;SDS011;53703;50.326;19.122;2023-02-23T07:12:36;16.80;;;8.80;;
66800;SDS011;53703;50.326;19.122;2023-02-23T07:15:30;16.30;;;7.50;;
66800;SDS011;53703;50.326;19.122;2023-02-23T07:18:25;20.20;;;8.60;;
66800;SDS011;53703;50.326;19.122;2023-02-23T07:21:19;29.40;;;12.60;;
66800;SDS011;53703;50.326;19.122;2023-02-23T07:24:13;24.90;;;11.90;;
66800;SDS011;53703;50.326;19.122;2023-02-23T07:27:08;22.20;;;10.30;;
66800;SDS011;53703;50.326;19.122;2023-02-23T07:30:03;21.20;;;10.30;;
66800;SDS011;53703;50.326;19.122;2023-02-23T07:32:58;22.50;;;10.40;;
66800;SDS011;53703;50.326;19.122;2023-02-23T07:35:52;26.50;;;13.60;;
66800;SDS011;53703;50.326;19.122;2023-02-23T07:38:46;27.30;;;11.20;;
66800;SDS011;53703;50.326;19.122;2023-02-23T07:41:41;23.40;;;10.90;;
66800;SDS011;53703;50.326;19.122;2023-02-23T07:44:35;23.40;;;10.50;;
66800;SDS011;53703;50.326;19.122;2023-02-23T07:47:30;22.50;;;10.40;;
66800;SDS011;53703;50.326;19.122;2023-02-23T07:50:24;21.70;;;9.80;;
66800;SDS011;53703;50.326;19.122;2023-02-23T07:53:20;19.20;;;10.10;;
66800;SDS011;53703;50.326;19.122;2023-02-23T07:56:14;19.70;;;9.80;;
66800;SDS011;53703;50.326;19.122;2023-02-23T07:59:08;20.90;;;9.80;;
66800;SDS011;53703;50.326;19.122;2023-02-23T08:02:02;19.30;;;10.70;;
66800;SDS011;53703;50.326;19.122;2023-02-23T08:04:57;23.20;;;10.80;;
66800;SDS011;53703;50.326;19.122;2023-02-23T08:07:51;19.80;;;9.60;;
66800;SDS011;53703;50.326;19.122;2023-02-23T08:10:45;22.70;;;10.30;;
66800;SDS011;53703;50.326;19.122;2023-02-23T08:13:41;20.20;;;10.30;;
66800;SDS011;53703;50.326;19.122;2023-02-23T08:16:35;26.00;;;11.10;;
66800;SDS011;53703;50.326;19.122;2023-02-23T08:19:29;19.30;;;9.90;;
66800;SDS011;53703;50.326;19.122;2023-02-23T08:22:24;21.20;;;10.50;;
66800;SDS011;53703;50.326;19.122;2023-02-23T08:25:21;19.00;;;9.80;;
66800;SDS011;53703;50.326;19.122;2023-02-23T08:28:17;21.80;;;10.00;;
66800;SDS011;53703;50.326;19.122;2023-02-23T08:31:12;19.40;;;10.20;;
66800;SDS011;53703;50.326;19.122;2023-02-23T08:34:09;20.70;;;10.30;;
66800;SDS011;53703;50.326;19.122;2023-02-23T08:37:04;20.40;;;10.40;;
66800;SDS011;53703;50.326;19.122;2023-02-23T08:39:58;19.50;;;9.70;;
66800;SDS011;53703;50.326;19.122;2023-02-23T08:42:52;17.50;;;9.40;;
66800;SDS011;53703;50.326;19.122;2023-02-23T08:45:46;18.50;;;10.30;;
66800;SDS011;53703;50.326;19.122;2023-02-23T08:48:40;20.30;;;10.50;;
66800;SDS011;53703;50.326;19.122;2023-02-23T08:51:35;21.20;;;10.60;;
66800;SDS011;53703;50.326;19.122;2023-02-23T08:54:31;22.20;;;10.40;;
66800;SDS011;53703;50.326;19.122;2023-02-23T08:57:26;19.00;;;9.40;;
66800;SDS011;53703;50.326;19.122;2023-02-23T09:00:13;16.80;;;9.70;;
66800;SDS011;53703;50.326;19.122;2023-02-23T09:03:08;18.20;;;9.40;;
66800;SDS011;53703;50.326;19.122;2023-02-23T09:06:08;17.00;;;10.00;;
66800;SDS011;53703;50.326;19.122;2023-02-23T09:09:05;19.90;;;9.80;;
66800;SDS011;53703;50.326;19.122;2023-02-23T09:11:59;17.30;;;9.10;;
66800;SDS011;53703;50.326;19.122;2023-02-23T09:14:53;19.30;;;9.60;;
66800;SDS011;53703;50.326;19.122;2023-02-23T09:17:27;19.20;;;9.10;;
66800;SDS011;53703;50.326;19.122;2023-02-23T09:20:21;18.90;;;10.90;;
66800;SDS011;53703;50.326;19.122;2023-02-23T09:23:06;18.30;;;9.50;;
66800;SDS011;53703;50.326;19.122;2023-02-23T09:26:03;20.50;;;9.90;;
66800;SDS011;53703;50.326;19.122;2023-02-23T09:29:01;16.90;;;10.00;;
66800;SDS011;53703;50.326;19.122;2023-02-23T09:31:55;18.20;;;9.80;;
66800;SDS011;53703;50.326;19.122;2023-02-23T09:34:50;19.90;;;10.10;;
66800;SDS011;53703;50.326;19.122;2023-02-23T09:37:45;18.00;;;9.30;;
66800;SDS011;53703;50.326;19.122;2023-02-23T09:40:46;22.00;;;11.10;;
66800;SDS011;53703;50.326;19.122;2023-02-23T09:43:46;24.70;;;11.40;;
66800;SDS011;53703;50.326;19.122;2023-02-23T09:46:49;21.50;;;11.60;;
66800;SDS011;53703;50.326;19.122;2023-02-23T09:49:55;24.70;;;12.00;;
66800;SDS011;53703;50.326;19.122;2023-02-23T09:52:57;24.70;;;12.00;;
66800;SDS011;53703;50.326;19.122;2023-02-23T09:55:56;24.10;;;11.60;;
66800;SDS011;53703;50.326;19.122;2023-02-23T09:58:52;22.20;;;11.90;;
66800;SDS011;53703;50.326;19.122;2023-02-23T10:01:52;25.70;;;12.00;;
66800;SDS011;53703;50.326;19.122;2023-02-23T10:04:53;26.10;;;12.50;;
66800;SDS011;53703;50.326;19.122;2023-02-23T10:07:52;30.20;;;12.90;;
66800;SDS011;53703;50.326;19.122;2023-02-23T10:10:56;27.60;;;12.60;;
66800;SDS011;53703;50.326;19.122;2023-02-23T10:14:14;24.00;;;12.30;;
66800;SDS011;53703;50.326;19.122;2023-02-23T10:17:26;27.20;;;12.40;;
66800;SDS011;53703;50.326;19.122;2023-02-23T10:20:29;28.10;;;12.50;;
66800;SDS011;53703;50.326;19.122;2023-02-23T10:23:33;23.90;;;11.60;;
66800;SDS011;53703;50.326;19.122;2023-02-23T10:26:37;24.90;;;12.70;;
66800;SDS011;53703;50.326;19.122;2023-02-23T10:29:36;25.80;;;11.90;;
66800;SDS011;53703;50.326;19.122;2023-02-23T10:32:39;25.10;;;11.60;;
66800;SDS011;53703;50.326;19.122;2023-02-23T10:35:38;26.00;;;11.60;;
66800;SDS011;53703;50.326;19.122;2023-02-23T10:38:32;24.30;;;11.40;;
66800;SDS011;53703;50.326;19.122;2023-02-23T10:41:26;25.60;;;11.70;;
66800;SDS011;53703;50.326;19.122;2023-02-23T10:44:22;27.80;;;11.90;;
66800;SDS011;53703;50.326;19.122;2023-02-23T10:47:20;24.90;;;11.70;;
66800;SDS011;53703;50.326;19.122;2023-02-23T10:50:18;26.70;;;12.00;;
66800;SDS011;53703;50.326;19.122;2023-02-23T10:53:21;26.80;;;12.50;;
66800;SDS011;53703;50.326;19.122;2023-02-23T10:56:17;25.30;;;12.80;;
66800;SDS011;53703;50.326;19.122;2023-02-23T10:59:17;29.30;;;13.10;;
66800;SDS011;53703;50.326;19.122;2023-02-23T11:02:21;26.40;;;12.10;;
66800;SDS011;53703;50.326;19.122;2023-02-23T11:05:30;25.60;;;13.10;;
66800;SDS011;53703;50.326;19.122;2023-02-23T11:08:29;28.80;;;12.00;;
66800;SDS011;53703;50.326;19.122;2023-02-23T11:11:25;30.40;;;12.90;;
66800;SDS011;53703;50.326;19.122;2023-02-23T11:14:24;24.70;;;12.30;;
66800;SDS011;53703;50.326;19.122;2023-02-23T11:17:30;22.60;;;12.10;;
66800;SDS011;53703;50.326;19.122;2023-02-23T11:20:29;27.90;;;12.80;;
66800;SDS011;53703;50.326;19.122;2023-02-23T11:23:27;34.00;;;12.30;;
66800;SDS011;53703;50.326;19.122;2023-02-23T11:26:35;27.30;;;12.10;;
66800;SDS011;53703;50.326;19.122;2023-02-23T11:29:33;22.40;;;11.00;;
66800;SDS011;53703;50.326;19.122;2023-02-23T11:32:30;24.90;;;11.00;;
66800;SDS011;53703;50.326;19.122;2023-02-23T11:35:33;21.20;;;10.30;;
66800;SDS011;53703;50.326;19.122;2023-02-23T11:38:28;22.50;;;11.10;;
66800;SDS011;53703;50.326;19.122;2023-02-23T11:41:23;23.10;;;11.20;;
66800;SDS011;53703;50.326;19.122;2023-02-23T11:44:22;23.20;;;10.40;;
66800;SDS011;53703;50.326;19.122;2023-02-23T11:47:18;24.20;;;10.90;;
66800;SDS011;53703;50.326;19.122;2023-02-23T11:50:23;18.80;;;9.40;;
66800;SDS011;53703;50.326;19.122;2023-02-23T11:53:23;21.60;;;10.10;;
66800;SDS011;53703;50.326;19.122;2023-02-23T11:56:23;22.50;;;9.70;;
66800;SDS011;53703;50.326;19.122;2023-02-23T11:59:19;23.30;;;10.10;;
66800;SDS011;53703;50.326;19.122;2023-02-23T12:02:23;18.50;;;9.50;;
66800;SDS011;53703;50.326;19.122;2023-02-23T12:05:22;18.10;;;9.50;;
66800;SDS011;53703;50.326;19.122;2023-02-23T12:08:21;20.50;;;9.70;;
66800;SDS011;53703;50.326;19.122;2023-02-23T12:11:26;18.00;;;9.00;;
66800;SDS011;53703;50.326;19.122;2023-02-23T12:14:31;21.40;;;9.70;;
66800;SDS011;53703;50.326;19.122;2023-02-23T12:17:35;17.60;;;9.00;;
66800;SDS011;53703;50.326;19.122;2023-02-23T12:20:38;18.50;;;8.90;;
66800;SDS011;53703;50.326;19.122;2023-02-23T12:23:39;17.70;;;9.10;;
66800;SDS011;53703;50.326;19.122;2023-02-23T12:26:59;18.30;;;8.80;;
66800;SDS011;53703;50.326;19.122;2023-02-23T12:30:08;16.40;;;8.40;;
66800;SDS011;53703;50.326;19.122;2023-02-23T12:33:10;17.30;;;8.70;;
66800;SDS011;53703;50.326;19.122;2023-02-23T12:36:14;16.80;;;8.90;;
66800;SDS011;53703;50.326;19.122;2023-02-23T12:39:18;21.30;;;9.10;;
66800;SDS011;53703;50.326;19.122;2023-02-23T12:42:26;17.60;;;9.00;;
66800;SDS011;53703;50.326;19.122;2023-02-23T12:45:33;20.10;;;9.40;;
66800;SDS011;53703;50.326;19.122;2023-02-23T12:48:37;21.50;;;9.10;;
66800;SDS011;53703;50.326;19.122;2023-02-23T12:51:41;16.60;;;8.60;;
66800;SDS011;53703;50.326;19.122;2023-02-23T12:54:42;15.80;;;8.10;;
66800;SDS011;53703;50.326;19.122;2023-02-23T12:57:39;22.40;;;8.70;;
66800;SDS011;53703;50.326;19.122;2023-02-23T13:00:52;17.00;;;8.60;;
66800;SDS011;53703;50.326;19.122;2023-02-23T13:07:36;22.40;;;10.10;;
66800;SDS011;53703;50.326;19.122;2023-02-23T13:10:44;18.40;;;9.30;;
66800;SDS011;53703;50.326;19.122;2023-02-23T13:13:48;17.30;;;9.20;;
66800;SDS011;53703;50.326;19.122;2023-02-23T13:16:56;17.90;;;8.40;;
66800;SDS011;53703;50.326;19.122;2023-02-23T13:19:57;15.60;;;8.00;;
66800;SDS011;53703;50.326;19.122;2023-02-23T13:22:58;18.80;;;9.00;;
66800;SDS011;53703;50.326;19.122;2023-02-23T13:26:07;17.80;;;9.20;;
66800;SDS011;53703;50.326;19.122;2023-02-23T13:29:14;17.80;;;9.10;;
66800;SDS011;53703;50.326;19.122;2023-02-23T13:32:11;15.90;;;8.00;;
66800;SDS011;53703;50.326;19.122;2023-02-23T13:35:13;19.70;;;8.30;;
66800;SDS011;53703;50.326;19.122;2023-02-23T13:38:14;19.40;;;8.40;;
66800;SDS011;53703;50.326;19.122;2023-02-23T13:41:20;18.20;;;8.40;;
66800;SDS011;53703;50.326;19.122;2023-02-23T13:44:19;20.20;;;8.80;;
66800;SDS011;53703;50.326;19.122;2023-02-23T13:47:24;15.20;;;8.10;;
66800;SDS011;53703;50.326;19.122;2023-02-23T13:50:30;19.00;;;8.60;;
66800;SDS011;53703;50.326;19.122;2023-02-23T13:53:56;14.90;;;8.20;;
66800;SDS011;53703;50.326;19.122;2023-02-23T13:56:55;18.00;;;8.40;;
66800;SDS011;53703;50.326;19.122;2023-02-23T13:59:52;19.30;;;8.20;;
66800;SDS011;53703;50.326;19.122;2023-02-23T14:02:46;18.30;;;8.40;;
66800;SDS011;53703;50.326;19.122;2023-02-23T14:05:43;19.30;;;9.00;;
66800;SDS011;53703;50.326;19.122;2023-02-23T14:08:50;19.10;;;9.10;;
66800;SDS011;53703;50.326;19.122;2023-02-23T14:11:51;20.00;;;9.10;;
66800;SDS011;53703;50.326;19.122;2023-02-23T14:14:56;17.40;;;8.40;;
66800;SDS011;53703;50.326;19.122;2023-02-23T14:18:32;17.80;;;9.10;;
66800;SDS011;53703;50.326;19.122;2023-02-23T14:21:29;19.10;;;10.10;;
66800;SDS011;53703;50.326;19.122;2023-02-23T14:24:27;16.30;;;7.90;;
66800;SDS011;53703;50.326;19.122;2023-02-23T14:27:23;17.10;;;8.90;;
66800;SDS011;53703;50.326;19.122;2023-02-23T14:30:43;20.00;;;8.10;;
66800;SDS011;53703;50.326;19.122;2023-02-23T14:33:55;17.30;;;8.50;;
66800;SDS011;53703;50.326;19.122;2023-02-23T14:36:53;15.70;;;8.40;;
66800;SDS011;53703;50.326;19.122;2023-02-23T14:39:48;15.70;;;8.40;;
66800;SDS011;53703;50.326;19.122;2023-02-23T14:42:46;16.50;;;7.90;;
66800;SDS011;53703;50.326;19.122;2023-02-23T14:45:44;15.20;;;7.50;;
66800;SDS011;53703;50.326;19.122;2023-02-23T14:48:39;14.10;;;7.50;;
66800;SDS011;53703;50.326;19.122;2023-02-23T14:51:50;16.00;;;8.00;;
66800;SDS011;53703;50.326;19.122;2023-02-23T14:54:46;13.00;;;7.20;;
66800;SDS011;53703;50.326;19.122;2023-02-23T14:57:42;16.00;;;8.20;;
66800;SDS011;53703;50.326;19.122;2023-02-23T15:00:42;18.30;;;7.60;;
66800;SDS011;53703;50.326;19.122;2023-02-23T15:03:36;16.30;;;7.80;;
66800;SDS011;53703;50.326;19.122;2023-02-23T15:06:30;15.40;;;7.90;;
66800;SDS011;53703;50.326;19.122;2023-02-23T15:09:31;15.80;;;7.50;;
66800;SDS011;53703;50.326;19.122;2023-02-23T15:12:29;19.90;;;7.20;;
66800;SDS011;53703;50.326;19.122;2023-02-23T15:15:29;14.50;;;7.50;;
66800;SDS011;53703;50.326;19.122;2023-02-23T15:18:26;20.20;;;7.90;;
66800;SDS011;53703;50.326;19.122;2023-02-23T15:21:32;14.10;;;7.10;;
66800;SDS011;53703;50.326;19.122;2023-02-23T15:24:32;17.00;;;7.30;;
66800;SDS011;53703;50.326;19.122;2023-02-23T15:27:39;13.10;;;7.40;;
66800;SDS011;53703;50.326;19.122;2023-02-23T15:30:45;16.00;;;7.50;;
66800;SDS011;53703;50.326;19.122;2023-02-23T15:33:40;12.70;;;7.00;;
66800;SDS011;53703;50.326;19.122;2023-02-23T15:36:28;16.40;;;6.90;;
66800;SDS011;53703;50.326;19.122;2023-02-23T15:39:33;12.80;;;6.90;;
66800;SDS011;53703;50.326;19.122;2023-02-23T15:42:37;13.60;;;6.70;;
66800;SDS011;53703;50.326;19.122;2023-02-23T15:45:36;20.60;;;7.10;;
66800;SDS011;53703;50.326;19.122;2023-02-23T15:48:40;14.00;;;6.70;;
66800;SDS011;53703;50.326;19.122;2023-02-23T15:51:38;14.10;;;7.20;;
66800;SDS011;53703;50.326;19.122;2023-02-23T15:54:43;12.40;;;6.50;;
66800;SDS011;53703;50.326;19.122;2023-02-23T15:57:46;13.10;;;6.90;;
66800;SDS011;53703;50.326;19.122;2023-02-23T16:01:11;12.20;;;6.10;;
66800;SDS011;53703;50.326;19.122;2023-02-23T16:04:17;15.30;;;7.20;;
66800;SDS011;53703;50.326;19.122;2023-02-23T16:07:20;12.80;;;6.80;;
66800;SDS011;53703;50.326;19.122;2023-02-23T16:10:22;14.00;;;7.50;;
66800;SDS011;53703;50.326;19.122;2023-02-23T16:13:20;13.10;;;7.00;;
66800;SDS011;53703;50.326;19.122;2023-02-23T16:16:16;14.50;;;6.80;;
66800;SDS011;53703;50.326;19.122;2023-02-23T16:19:16;17.30;;;7.10;;
66800;SDS011;53703;50.326;19.122;2023-02-23T16:22:20;16.00;;;8.00;;
66800;SDS011;53703;50.326;19.122;2023-02-23T16:25:17;17.60;;;8.00;;
66800;SDS011;53703;50.326;19.122;2023-02-23T16:28:17;15.80;;;7.60;;
66800;SDS011;53703;50.326;19.122;2023-02-23T16:31:18;20.30;;;8.10;;
66800;SDS011;53703;50.326;19.122;2023-02-23T16:34:43;21.10;;;8.60;;
66800;SDS011;53703;50.326;19.122;2023-02-23T16:37:54;17.60;;;8.60;;
66800;SDS011;53703;50.326;19.122;2023-02-23T16:40:52;18.70;;;8.30;;
66800;SDS011;53703;50.326;19.122;2023-02-23T16:43:48;17.50;;;8.50;;
66800;SDS011;53703;50.326;19.122;2023-02-23T16:50:27;16.00;;;8.20;;
66800;SDS011;53703;50.326;19.122;2023-02-23T16:53:22;16.70;;;8.10;;
66800;SDS011;53703;50.326;19.122;2023-02-23T16:56:19;17.80;;;8.70;;
66800;SDS011;53703;50.326;19.122;2023-02-23T16:59:16;17.30;;;8.00;;
66800;SDS011;53703;50.326;19.122;2023-02-23T17:02:11;17.40;;;8.30;;
66800;SDS011;53703;50.326;19.122;2023-02-23T17:05:10;16.50;;;8.60;;
66800;SDS011;53703;50.326;19.122;2023-02-23T17:08:08;18.30;;;8.50;;
66800;SDS011;53703;50.326;19.122;2023-02-23T17:11:03;17.80;;;8.50;;
66800;SDS011;53703;50.326;19.122;2023-02-23T17:13:57;17.60;;;8.90;;
66800;SDS011;53703;50.326;19.122;2023-02-23T17:16:52;15.90;;;8.20;;
66800;SDS011;53703;50.326;19.122;2023-02-23T17:19:47;17.80;;;8.90;;
66800;SDS011;53703;50.326;19.122;2023-02-23T17:22:41;17.30;;;8.30;;
66800;SDS011;53703;50.326;19.122;2023-02-23T17:25:36;18.70;;;8.90;;
66800;SDS011;53703;50.326;19.122;2023-02-23T17:28:30;18.80;;;9.20;;
66800;SDS011;53703;50.326;19.122;2023-02-23T17:31:24;21.00;;;9.50;;
66800;SDS011;53703;50.326;19.122;2023-02-23T17:34:04;19.80;;;9.10;;
66800;SDS011;53703;50.326;19.122;2023-02-23T17:36:59;17.70;;;9.20;;